sensor_id;sensor_type;location;lat;lon;timestamp;temperature;humidity
6954;DHT22;3516;47.980;8.808;2023-07-24T04:33:25;16.10;99.90
6954;DHT22;3516;47.980;8.808;2023-07-24T04:40:46;16.20;99.90
6954;DHT22;3516;47.980;8.808;2023-07-24T04:43:13;16.20;99.90
6954;DHT22;3516;47.980;8.808;2023-07-24T04:45:40;16.30;99.90
6954;DHT22;3516;47.980;8.808;2023-07-24T04:48:07;16.20;99.90
6954;DHT22;3516;47.980;8.808;2023-07-24T04:50:35;16.20;99.90
6954;DHT22;3516;47.980;8.808;2023-07-24T04:53:01;16.30;99.90
6954;DHT22;3516;47.980;8.808;2023-07-24T04:55:28;16.30;99.90
6954;DHT22;3516;47.980;8.808;2023-07-24T04:57:55;16.40;99.90
6954;DHT22;3516;47.980;8.808;2023-07-24T05:00:22;16.40;99.90
6954;DHT22;3516;47.980;8.808;2023-07-24T05:02:48;16.50;99.90
6954;DHT22;3516;47.980;8.808;2023-07-24T05:05:15;16.50;99.90
6954;DHT22;3516;47.980;8.808;2023-07-24T05:07:43;16.50;99.90
6954;DHT22;3516;47.980;8.808;2023-07-24T05:10:10;16.40;99.90
6954;DHT22;3516;47.980;8.808;2023-07-24T05:12:40;16.40;99.90
6954;DHT22;3516;47.980;8.808;2023-07-24T05:15:08;16.30;99.90
6954;DHT22;3516;47.980;8.808;2023-07-24T05:17:35;16.20;99.90
6954;DHT22;3516;47.980;8.808;2023-07-24T05:20:02;16.20;99.90
6954;DHT22;3516;47.980;8.808;2023-07-24T05:22:28;16.10;99.90
6954;DHT22;3516;47.980;8.808;2023-07-24T05:24:56;16.10;99.90
6954;DHT22;3516;47.980;8.808;2023-07-24T05:27:23;16.00;99.90
6954;DHT22;3516;47.980;8.808;2023-07-24T05:29:50;16.00;99.90
6954;DHT22;3516;47.980;8.808;2023-07-24T05:32:16;16.10;99.90
6954;DHT22;3516;47.980;8.808;2023-07-24T05:34:43;16.20;99.90
6954;DHT22;3516;47.980;8.808;2023-07-24T05:37:10;16.20;99.90
6954;DHT22;3516;47.980;8.808;2023-07-24T05:39:37;16.30;99.90
6954;DHT22;3516;47.980;8.808;2023-07-24T05:42:05;16.40;99.90
6954;DHT22;3516;47.980;8.808;2023-07-24T05:44:32;16.50;99.90
6954;DHT22;3516;47.980;8.808;2023-07-24T05:47:01;16.60;99.90
6954;DHT22;3516;47.980;8.808;2023-07-24T05:49:27;16.70;99.90
6954;DHT22;3516;47.980;8.808;2023-07-24T05:51:54;16.60;99.90
6954;DHT22;3516;47.980;8.808;2023-07-24T05:54:22;16.60;99.90
6954;DHT22;3516;47.980;8.808;2023-07-24T05:56:49;16.60;99.90
6954;DHT22;3516;47.980;8.808;2023-07-24T05:59:17;16.60;99.90
6954;DHT22;3516;47.980;8.808;2023-07-24T06:01:43;16.60;99.90
6954;DHT22;3516;47.980;8.808;2023-07-24T06:04:10;16.60;99.90
6954;DHT22;3516;47.980;8.808;2023-07-24T06:06:37;16.80;99.90
6954;DHT22;3516;47.980;8.808;2023-07-24T06:09:04;16.80;99.90
6954;DHT22;3516;47.980;8.808;2023-07-24T06:11:30;17.00;99.90
6954;DHT22;3516;47.980;8.808;2023-07-24T06:13:57;17.20;99.90
6954;DHT22;3516;47.980;8.808;2023-07-24T06:16:25;17.30;99.90
6954;DHT22;3516;47.980;8.808;2023-07-24T06:18:52;17.30;99.90
6954;DHT22;3516;47.980;8.808;2023-07-24T06:21:18;17.50;99.90
6954;DHT22;3516;47.980;8.808;2023-07-24T06:23:45;17.60;99.90
6954;DHT22;3516;47.980;8.808;2023-07-24T06:26:12;17.80;99.90
6954;DHT22;3516;47.980;8.808;2023-07-24T06:28:38;17.90;99.90
6954;DHT22;3516;47.980;8.808;2023-07-24T06:31:05;18.10;99.90
6954;DHT22;3516;47.980;8.808;2023-07-24T06:33:33;18.30;99.90
6954;DHT22;3516;47.980;8.808;2023-07-24T06:36:00;18.50;99.90
6954;DHT22;3516;47.980;8.808;2023-07-24T06:38:27;18.60;99.90
6954;DHT22;3516;47.980;8.808;2023-07-24T06:40:53;18.80;99.90
6954;DHT22;3516;47.980;8.808;2023-07-24T06:43:20;18.90;99.90
6954;DHT22;3516;47.980;8.808;2023-07-24T06:45:47;19.10;99.90
6954;DHT22;3516;47.980;8.808;2023-07-24T06:48:13;19.30;99.90
6954;DHT22;3516;47.980;8.808;2023-07-24T06:50:41;19.70;99.90
6954;DHT22;3516;47.980;8.808;2023-07-24T06:53:08;20.20;99.90
6954;DHT22;3516;47.980;8.808;2023-07-24T06:55:35;21.10;99.90
6954;DHT22;3516;47.980;8.808;2023-07-24T06:58:01;22.10;99.90
6954;DHT22;3516;47.980;8.808;2023-07-24T07:00:28;23.20;99.90
6954;DHT22;3516;47.980;8.808;2023-07-24T07:02:55;23.60;99.90
6954;DHT22;3516;47.980;8.808;2023-07-24T07:05:21;23.50;99.90
6954;DHT22;3516;47.980;8.808;2023-07-24T07:07:49;23.30;99.90
6954;DHT22;3516;47.980;8.808;2023-07-24T07:10:16;23.00;99.90
6954;DHT22;3516;47.980;8.808;2023-07-24T07:12:43;22.70;99.90
6954;DHT22;3516;47.980;8.808;2023-07-24T07:15:10;22.50;99.90
6954;DHT22;3516;47.980;8.808;2023-07-24T07:17:36;22.40;99.90
6954;DHT22;3516;47.980;8.808;2023-07-24T07:20:04;22.30;99.90
6954;DHT22;3516;47.980;8.808;2023-07-24T07:22:31;22.40;99.90
6954;DHT22;3516;47.980;8.808;2023-07-24T07:24:59;22.40;99.90
6954;DHT22;3516;47.980;8.808;2023-07-24T07:27:26;22.10;99.90
6954;DHT22;3516;47.980;8.808;2023-07-24T07:29:52;21.90;99.90
6954;DHT22;3516;47.980;8.808;2023-07-24T07:32:19;22.00;99.90
6954;DHT22;3516;47.980;8.808;2023-07-24T07:34:46;22.00;99.90
6954;DHT22;3516;47.980;8.808;2023-07-24T07:37:12;22.30;99.90
6954;DHT22;3516;47.980;8.808;2023-07-24T07:39:39;22.60;99.90
6954;DHT22;3516;47.980;8.808;2023-07-24T07:42:07;23.10;99.90
6954;DHT22;3516;47.980;8.808;2023-07-24T07:44:34;23.40;99.90
6954;DHT22;3516;47.980;8.808;2023-07-24T07:47:01;23.60;99.90
6954;DHT22;3516;47.980;8.808;2023-07-24T07:49:27;23.70;99.90
6954;DHT22;3516;47.980;8.808;2023-07-24T07:51:54;23.80;99.90
6954;DHT22;3516;47.980;8.808;2023-07-24T07:54:21;23.90;99.90
6954;DHT22;3516;47.980;8.808;2023-07-24T07:56:47;23.80;99.90
6954;DHT22;3516;47.980;8.808;2023-07-24T07:59:15;23.70;99.90
6954;DHT22;3516;47.980;8.808;2023-07-24T08:01:42;23.60;99.90
6954;DHT22;3516;47.980;8.808;2023-07-24T08:04:10;23.30;99.90
6954;DHT22;3516;47.980;8.808;2023-07-24T08:06:37;23.00;99.90
6954;DHT22;3516;47.980;8.808;2023-07-24T08:09:04;22.80;99.90
6954;DHT22;3516;47.980;8.808;2023-07-24T08:11:30;22.60;99.90
6954;DHT22;3516;47.980;8.808;2023-07-24T08:13:57;22.40;99.90
6954;DHT22;3516;47.980;8.808;2023-07-24T08:16:25;22.10;99.90
6954;DHT22;3516;47.980;8.808;2023-07-24T08:18:52;21.80;99.90
6954;DHT22;3516;47.980;8.808;2023-07-24T08:21:18;21.60;99.90
6954;DHT22;3516;47.980;8.808;2023-07-24T08:23:45;21.40;99.90
6954;DHT22;3516;47.980;8.808;2023-07-24T08:26:12;21.30;99.90
6954;DHT22;3516;47.980;8.808;2023-07-24T08:28:38;21.20;99.90
6954;DHT22;3516;47.980;8.808;2023-07-24T08:31:08;21.20;99.90
6954;DHT22;3516;47.980;8.808;2023-07-24T08:33:36;21.30;99.90
6954;DHT22;3516;47.980;8.808;2023-07-24T08:36:04;21.30;99.90
6954;DHT22;3516;47.980;8.808;2023-07-24T08:38:31;21.40;99.90
6954;DHT22;3516;47.980;8.808;2023-07-24T08:41:03;21.60;99.90
6954;DHT22;3516;47.980;8.808;2023-07-24T08:43:31;21.90;99.90
6954;DHT22;3516;47.980;8.808;2023-07-24T08:45:58;22.20;99.90
6954;DHT22;3516;47.980;8.808;2023-07-24T08:48:26;22.40;99.90
6954;DHT22;3516;47.980;8.808;2023-07-24T08:50:57;22.70;99.90
6954;DHT22;3516;47.980;8.808;2023-07-24T08:53:25;22.90;99.90
6954;DHT22;3516;47.980;8.808;2023-07-24T08:55:53;23.10;99.90
6954;DHT22;3516;47.980;8.808;2023-07-24T08:58:21;23.50;99.90
6954;DHT22;3516;47.980;8.808;2023-07-24T09:00:48;23.70;99.90
6954;DHT22;3516;47.980;8.808;2023-07-24T09:03:17;23.90;99.90
6954;DHT22;3516;47.980;8.808;2023-07-24T09:05:43;24.00;99.90
6954;DHT22;3516;47.980;8.808;2023-07-24T09:08:11;24.20;99.90
6954;DHT22;3516;47.980;8.808;2023-07-24T09:10:38;24.30;99.90
6954;DHT22;3516;47.980;8.808;2023-07-24T09:13:05;24.30;99.90
6954;DHT22;3516;47.980;8.808;2023-07-24T09:15:40;24.40;99.90
6954;DHT22;3516;47.980;8.808;2023-07-24T09:18:06;24.60;99.90
6954;DHT22;3516;47.980;8.808;2023-07-24T09:20:38;24.90;99.90
6954;DHT22;3516;47.980;8.808;2023-07-24T09:23:05;25.40;99.90
6954;DHT22;3516;47.980;8.808;2023-07-24T09:25:35;26.00;99.90
6954;DHT22;3516;47.980;8.808;2023-07-24T09:28:09;26.50;99.90
6954;DHT22;3516;47.980;8.808;2023-07-24T09:30:36;26.90;99.90
6954;DHT22;3516;47.980;8.808;2023-07-24T09:33:03;27.00;99.90
6954;DHT22;3516;47.980;8.808;2023-07-24T09:35:29;26.90;99.90
6954;DHT22;3516;47.980;8.808;2023-07-24T09:38:03;27.00;99.90
6954;DHT22;3516;47.980;8.808;2023-07-24T09:40:39;27.20;99.90
6954;DHT22;3516;47.980;8.808;2023-07-24T09:43:19;27.50;99.90
6954;DHT22;3516;47.980;8.808;2023-07-24T09:45:47;27.60;99.90
6954;DHT22;3516;47.980;8.808;2023-07-24T09:48:15;27.60;99.90
6954;DHT22;3516;47.980;8.808;2023-07-24T09:50:45;27.80;99.90
6954;DHT22;3516;47.980;8.808;2023-07-24T09:53:17;27.90;99.90
6954;DHT22;3516;47.980;8.808;2023-07-24T09:55:57;27.70;99.90
6954;DHT22;3516;47.980;8.808;2023-07-24T09:58:25;27.60;99.90
6954;DHT22;3516;47.980;8.808;2023-07-24T10:00:52;27.60;99.90
6954;DHT22;3516;47.980;8.808;2023-07-24T10:03:19;27.70;99.90
6954;DHT22;3516;47.980;8.808;2023-07-24T10:05:47;27.30;99.90
6954;DHT22;3516;47.980;8.808;2023-07-24T10:08:16;26.80;99.90
6954;DHT22;3516;47.980;8.808;2023-07-24T10:10:43;26.20;99.90
6954;DHT22;3516;47.980;8.808;2023-07-24T10:13:13;25.70;99.90
6954;DHT22;3516;47.980;8.808;2023-07-24T10:15:41;23.80;99.90
6954;DHT22;3516;47.980;8.808;2023-07-24T10:18:08;22.20;99.90
6954;DHT22;3516;47.980;8.808;2023-07-24T10:20:36;20.90;99.90
6954;DHT22;3516;47.980;8.808;2023-07-24T10:23:04;19.90;99.90
6954;DHT22;3516;47.980;8.808;2023-07-24T10:25:32;19.10;99.90
6954;DHT22;3516;47.980;8.808;2023-07-24T10:28:03;18.70;99.90
6954;DHT22;3516;47.980;8.808;2023-07-24T10:30:34;18.30;99.90
6954;DHT22;3516;47.980;8.808;2023-07-24T10:33:06;18.00;99.90
6954;DHT22;3516;47.980;8.808;2023-07-24T10:35:38;17.70;99.90
6954;DHT22;3516;47.980;8.808;2023-07-24T10:38:05;17.40;99.90
6954;DHT22;3516;47.980;8.808;2023-07-24T10:40:33;17.20;99.90
6954;DHT22;3516;47.980;8.808;2023-07-24T10:43:01;17.20;99.90
6954;DHT22;3516;47.980;8.808;2023-07-24T10:45:50;17.10;99.90
6954;DHT22;3516;47.980;8.808;2023-07-24T10:48:18;16.90;99.90
6954;DHT22;3516;47.980;8.808;2023-07-24T10:50:47;16.70;99.90
6954;DHT22;3516;47.980;8.808;2023-07-24T10:53:15;16.70;99.90
6954;DHT22;3516;47.980;8.808;2023-07-24T10:55:43;16.70;99.90
6954;DHT22;3516;47.980;8.808;2023-07-24T10:58:11;16.70;99.90
6954;DHT22;3516;47.980;8.808;2023-07-24T11:00:38;16.80;99.90
6954;DHT22;3516;47.980;8.808;2023-07-24T11:03:08;16.80;99.90
6954;DHT22;3516;47.980;8.808;2023-07-24T11:05:35;16.90;99.90
6954;DHT22;3516;47.980;8.808;2023-07-24T11:08:09;16.90;99.90
6954;DHT22;3516;47.980;8.808;2023-07-24T11:10:44;16.90;99.90
6954;DHT22;3516;47.980;8.808;2023-07-24T11:13:12;17.10;99.90
6954;DHT22;3516;47.980;8.808;2023-07-24T11:15:39;17.30;99.90
6954;DHT22;3516;47.980;8.808;2023-07-24T11:18:07;17.40;99.90
6954;DHT22;3516;47.980;8.808;2023-07-24T11:20:37;17.60;99.90
6954;DHT22;3516;47.980;8.808;2023-07-24T11:23:05;17.90;99.90
6954;DHT22;3516;47.980;8.808;2023-07-24T11:25:32;18.10;99.90
6954;DHT22;3516;47.980;8.808;2023-07-24T11:27:58;18.20;99.90
6954;DHT22;3516;47.980;8.808;2023-07-24T11:30:25;18.20;99.90
6954;DHT22;3516;47.980;8.808;2023-07-24T11:32:52;18.10;99.90
6954;DHT22;3516;47.980;8.808;2023-07-24T11:35:21;18.00;99.90
6954;DHT22;3516;47.980;8.808;2023-07-24T11:37:48;18.00;99.90
6954;DHT22;3516;47.980;8.808;2023-07-24T11:40:14;18.10;99.90
6954;DHT22;3516;47.980;8.808;2023-07-24T11:42:43;18.30;99.90
6954;DHT22;3516;47.980;8.808;2023-07-24T11:45:11;18.40;99.90
6954;DHT22;3516;47.980;8.808;2023-07-24T11:47:44;18.50;99.90
6954;DHT22;3516;47.980;8.808;2023-07-24T11:50:12;18.90;99.90
6954;DHT22;3516;47.980;8.808;2023-07-24T11:52:42;19.20;99.90
6954;DHT22;3516;47.980;8.808;2023-07-24T12:20:03;18.20;99.90
6954;DHT22;3516;47.980;8.808;2023-07-24T12:22:31;18.40;99.90
6954;DHT22;3516;47.980;8.808;2023-07-24T12:24:59;18.60;99.90
6954;DHT22;3516;47.980;8.808;2023-07-24T12:27:26;18.70;99.90
6954;DHT22;3516;47.980;8.808;2023-07-24T12:29:53;19.00;99.90
6954;DHT22;3516;47.980;8.808;2023-07-24T12:32:20;19.50;99.90
6954;DHT22;3516;47.980;8.808;2023-07-24T12:34:48;19.60;99.90
6954;DHT22;3516;47.980;8.808;2023-07-24T12:37:16;19.30;99.90
6954;DHT22;3516;47.980;8.808;2023-07-24T12:39:43;19.20;99.90
6954;DHT22;3516;47.980;8.808;2023-07-24T12:42:11;19.00;99.90
6954;DHT22;3516;47.980;8.808;2023-07-24T12:44:38;19.20;99.90
6954;DHT22;3516;47.980;8.808;2023-07-24T12:47:05;19.50;99.90
6954;DHT22;3516;47.980;8.808;2023-07-24T12:49:32;19.80;99.90
6954;DHT22;3516;47.980;8.808;2023-07-24T12:51:59;20.00;99.90
6954;DHT22;3516;47.980;8.808;2023-07-24T12:54:26;20.20;99.90
6954;DHT22;3516;47.980;8.808;2023-07-24T12:56:53;20.10;99.90
6954;DHT22;3516;47.980;8.808;2023-07-24T12:59:21;19.70;99.90
6954;DHT22;3516;47.980;8.808;2023-07-24T13:01:48;19.40;99.90
6954;DHT22;3516;47.980;8.808;2023-07-24T13:04:14;19.30;99.90
6954;DHT22;3516;47.980;8.808;2023-07-24T13:06:41;19.30;99.90
6954;DHT22;3516;47.980;8.808;2023-07-24T13:09:08;19.40;99.90
6954;DHT22;3516;47.980;8.808;2023-07-24T13:11:35;19.40;99.90
6954;DHT22;3516;47.980;8.808;2023-07-24T13:14:02;19.30;99.90
6954;DHT22;3516;47.980;8.808;2023-07-24T13:16:30;19.10;99.90
6954;DHT22;3516;47.980;8.808;2023-07-24T13:18:56;19.10;99.90
6954;DHT22;3516;47.980;8.808;2023-07-24T13:21:23;19.40;99.90
6954;DHT22;3516;47.980;8.808;2023-07-24T13:23:50;19.60;99.90
6954;DHT22;3516;47.980;8.808;2023-07-24T13:26:17;19.50;99.90
6954;DHT22;3516;47.980;8.808;2023-07-24T13:28:43;19.60;99.90
6954;DHT22;3516;47.980;8.808;2023-07-24T13:31:12;19.60;99.90
6954;DHT22;3516;47.980;8.808;2023-07-24T13:33:40;19.90;99.90
6954;DHT22;3516;47.980;8.808;2023-07-24T13:36:07;19.90;99.90
6954;DHT22;3516;47.980;8.808;2023-07-24T13:38:34;19.80;99.90
6954;DHT22;3516;47.980;8.808;2023-07-24T13:41:01;19.90;99.90
6954;DHT22;3516;47.980;8.808;2023-07-24T13:43:29;19.90;99.90
6954;DHT22;3516;47.980;8.808;2023-07-24T13:45:56;19.70;99.90
6954;DHT22;3516;47.980;8.808;2023-07-24T13:48:22;19.60;99.90
6954;DHT22;3516;47.980;8.808;2023-07-24T13:50:50;19.30;99.90
6954;DHT22;3516;47.980;8.808;2023-07-24T13:53:17;19.30;99.90
6954;DHT22;3516;47.980;8.808;2023-07-24T13:55:44;19.10;99.90
6954;DHT22;3516;47.980;8.808;2023-07-24T13:58:11;19.10;99.90
6954;DHT22;3516;47.980;8.808;2023-07-24T14:00:37;19.10;99.90
6954;DHT22;3516;47.980;8.808;2023-07-24T14:03:04;19.00;99.90
6954;DHT22;3516;47.980;8.808;2023-07-24T14:05:31;19.00;99.90
6954;DHT22;3516;47.980;8.808;2023-07-24T14:07:59;18.90;99.90
6954;DHT22;3516;47.980;8.808;2023-07-24T14:10:26;18.90;99.90
6954;DHT22;3516;47.980;8.808;2023-07-24T14:12:53;18.60;99.90
6954;DHT22;3516;47.980;8.808;2023-07-24T14:15:19;18.50;99.90
6954;DHT22;3516;47.980;8.808;2023-07-24T14:17:46;18.40;99.90
6954;DHT22;3516;47.980;8.808;2023-07-24T14:20:13;18.30;99.90
6954;DHT22;3516;47.980;8.808;2023-07-24T14:22:39;18.20;99.90
6954;DHT22;3516;47.980;8.808;2023-07-24T14:25:08;18.20;99.90
6954;DHT22;3516;47.980;8.808;2023-07-24T14:27:37;18.00;99.90
6954;DHT22;3516;47.980;8.808;2023-07-24T14:30:05;18.00;99.90
6954;DHT22;3516;47.980;8.808;2023-07-24T14:32:40;17.70;99.90
6954;DHT22;3516;47.980;8.808;2023-07-24T14:54:57;17.70;99.90
6954;DHT22;3516;47.980;8.808;2023-07-24T14:57:25;18.00;99.90
6954;DHT22;3516;47.980;8.808;2023-07-24T14:59:54;18.20;99.90
6954;DHT22;3516;47.980;8.808;2023-07-24T15:02:26;18.30;99.90
6954;DHT22;3516;47.980;8.808;2023-07-24T15:04:52;18.40;99.90
6954;DHT22;3516;47.980;8.808;2023-07-24T15:07:19;18.60;99.90
6954;DHT22;3516;47.980;8.808;2023-07-24T15:09:46;18.60;99.90
6954;DHT22;3516;47.980;8.808;2023-07-24T15:12:12;18.80;99.90
6954;DHT22;3516;47.980;8.808;2023-07-24T15:14:40;18.80;99.90
6954;DHT22;3516;47.980;8.808;2023-07-24T15:17:07;18.90;99.90
6954;DHT22;3516;47.980;8.808;2023-07-24T17:00:25;19.90;99.90
6954;DHT22;3516;47.980;8.808;2023-07-24T17:24:58;19.20;99.90
6954;DHT22;3516;47.980;8.808;2023-07-24T17:34:51;19.40;99.90
6954;DHT22;3516;47.980;8.808;2023-07-24T18:06:51;19.00;99.90
6954;DHT22;3516;47.980;8.808;2023-07-24T18:09:18;19.00;99.90
6954;DHT22;3516;47.980;8.808;2023-07-24T18:11:44;18.90;99.90
6954;DHT22;3516;47.980;8.808;2023-07-24T18:14:11;18.80;99.90
6954;DHT22;3516;47.980;8.808;2023-07-24T18:16:38;18.80;99.90
6954;DHT22;3516;47.980;8.808;2023-07-24T18:19:04;18.70;99.90
6954;DHT22;3516;47.980;8.808;2023-07-24T18:21:31;18.70;99.90
6954;DHT22;3516;47.980;8.808;2023-07-24T18:26:30;18.60;99.90
6954;DHT22;3516;47.980;8.808;2023-07-24T18:31:24;18.50;99.90
6954;DHT22;3516;47.980;8.808;2023-07-24T18:33:51;18.50;99.90
6954;DHT22;3516;47.980;8.808;2023-07-24T18:36:18;18.40;99.90
6954;DHT22;3516;47.980;8.808;2023-07-24T18:38:45;18.30;99.90
6954;DHT22;3516;47.980;8.808;2023-07-24T18:41:13;18.10;99.90
6954;DHT22;3516;47.980;8.808;2023-07-24T18:43:40;18.10;99.90
6954;DHT22;3516;47.980;8.808;2023-07-24T18:46:06;18.00;99.90
6954;DHT22;3516;47.980;8.808;2023-07-24T18:48:33;18.00;99.90
6954;DHT22;3516;47.980;8.808;2023-07-24T18:51:01;18.00;99.90
6954;DHT22;3516;47.980;8.808;2023-07-24T18:53:28;18.00;99.90
6954;DHT22;3516;47.980;8.808;2023-07-24T18:55:56;17.90;99.90
6954;DHT22;3516;47.980;8.808;2023-07-24T18:58:25;17.80;99.90
6954;DHT22;3516;47.980;8.808;2023-07-24T19:00:52;17.90;99.90
6954;DHT22;3516;47.980;8.808;2023-07-24T19:03:18;17.90;99.90
6954;DHT22;3516;47.980;8.808;2023-07-24T19:05:45;17.90;99.90
6954;DHT22;3516;47.980;8.808;2023-07-24T19:08:12;17.90;99.90
6954;DHT22;3516;47.980;8.808;2023-07-24T19:10:38;17.90;99.90
6954;DHT22;3516;47.980;8.808;2023-07-24T19:13:05;17.90;99.90
6954;DHT22;3516;47.980;8.808;2023-07-24T19:15:33;17.80;99.90
6954;DHT22;3516;47.980;8.808;2023-07-24T19:18:00;17.70;99.90
6954;DHT22;3516;47.980;8.808;2023-07-24T19:20:26;17.60;99.90
6954;DHT22;3516;47.980;8.808;2023-07-24T19:22:55;17.60;99.90
6954;DHT22;3516;47.980;8.808;2023-07-24T19:25:22;17.50;99.90
6954;DHT22;3516;47.980;8.808;2023-07-24T19:27:49;17.40;99.90
6954;DHT22;3516;47.980;8.808;2023-07-24T19:30:16;17.30;99.90
6954;DHT22;3516;47.980;8.808;2023-07-24T19:32:44;17.20;99.90
6954;DHT22;3516;47.980;8.808;2023-07-24T19:35:10;17.20;99.90
6954;DHT22;3516;47.980;8.808;2023-07-24T19:37:39;17.10;99.90
6954;DHT22;3516;47.980;8.808;2023-07-24T19:40:07;17.00;99.90
6954;DHT22;3516;47.980;8.808;2023-07-24T19:42:34;17.00;99.90
6954;DHT22;3516;47.980;8.808;2023-07-24T19:45:01;17.00;99.90
6954;DHT22;3516;47.980;8.808;2023-07-24T19:47:27;17.00;99.90
6954;DHT22;3516;47.980;8.808;2023-07-24T19:49:55;16.90;99.90
6954;DHT22;3516;47.980;8.808;2023-07-24T19:52:22;16.80;99.90
6954;DHT22;3516;47.980;8.808;2023-07-24T19:54:49;16.80;99.90
6954;DHT22;3516;47.980;8.808;2023-07-24T19:57:16;16.60;99.90
6954;DHT22;3516;47.980;8.808;2023-07-24T19:59:43;16.60;99.90
6954;DHT22;3516;47.980;8.808;2023-07-24T20:02:09;16.50;99.90
6954;DHT22;3516;47.980;8.808;2023-07-24T20:04:36;16.40;99.90
6954;DHT22;3516;47.980;8.808;2023-07-24T20:07:05;16.30;99.90
6954;DHT22;3516;47.980;8.808;2023-07-24T20:09:32;16.20;99.90
6954;DHT22;3516;47.980;8.808;2023-07-24T20:11:59;16.10;99.90
6954;DHT22;3516;47.980;8.808;2023-07-24T20:14:25;16.10;99.90
6954;DHT22;3516;47.980;8.808;2023-07-24T20:16:52;16.10;99.90
6954;DHT22;3516;47.980;8.808;2023-07-24T20:19:19;16.00;99.90
6954;DHT22;3516;47.980;8.808;2023-07-24T20:21:47;16.00;99.90
6954;DHT22;3516;47.980;8.808;2023-07-24T20:24:15;15.90;99.90
6954;DHT22;3516;47.980;8.808;2023-07-24T20:26:41;15.90;99.90
6954;DHT22;3516;47.980;8.808;2023-07-24T20:29:08;15.90;99.90
6954;DHT22;3516;47.980;8.808;2023-07-24T20:31:35;16.00;99.90
6954;DHT22;3516;47.980;8.808;2023-07-24T20:34:01;16.00;99.90
6954;DHT22;3516;47.980;8.808;2023-07-24T20:36:28;16.10;99.90
6954;DHT22;3516;47.980;8.808;2023-07-24T20:38:55;16.00;99.90
6954;DHT22;3516;47.980;8.808;2023-07-24T20:41:23;16.10;99.90
6954;DHT22;3516;47.980;8.808;2023-07-24T20:43:50;16.10;99.90
6954;DHT22;3516;47.980;8.808;2023-07-24T20:46:16;16.10;99.90
6954;DHT22;3516;47.980;8.808;2023-07-24T20:48:44;16.10;99.90
6954;DHT22;3516;47.980;8.808;2023-07-24T20:51:14;16.10;99.90
6954;DHT22;3516;47.980;8.808;2023-07-24T20:53:42;16.10;99.90
6954;DHT22;3516;47.980;8.808;2023-07-24T20:56:08;16.10;99.90
6954;DHT22;3516;47.980;8.808;2023-07-24T20:58:36;16.10;99.90
6954;DHT22;3516;47.980;8.808;2023-07-24T21:01:03;16.10;99.90
6954;DHT22;3516;47.980;8.808;2023-07-24T21:03:30;16.10;99.90
6954;DHT22;3516;47.980;8.808;2023-07-24T21:05:57;16.20;99.90
6954;DHT22;3516;47.980;8.808;2023-07-24T21:08:23;16.10;99.90
6954;DHT22;3516;47.980;8.808;2023-07-24T21:10:50;16.10;99.90
6954;DHT22;3516;47.980;8.808;2023-07-24T21:13:17;16.20;99.90
6954;DHT22;3516;47.980;8.808;2023-07-24T21:15:45;16.20;99.90
6954;DHT22;3516;47.980;8.808;2023-07-24T21:18:11;16.20;99.90
6954;DHT22;3516;47.980;8.808;2023-07-24T21:20:39;16.20;99.90
6954;DHT22;3516;47.980;8.808;2023-07-24T21:23:06;16.30;99.90
6954;DHT22;3516;47.980;8.808;2023-07-24T21:25:33;16.30;99.90
